Nyk Deneb — 3EOF8 — position and weather

sailwx.info

Track history (hours):
 
Tides and Currents Weather Stations Pressure Air Temp Water Temp Dewpoint Dewpoint Depression Visibility Wind Speed Wind Dir Waves Ship Positions

Nyk Deneb

Last reported at 2015-Jul-29 11:11 UTC. Time now 2015-Jul-31 13:20 UTC.
Position N 31°58' E 125°41'.

Length 294 m; draft 11.8 m.

Type: Ship (hazmat cat B). MMSI: 355717000.

Date/timePositionNaut miles runAvg speedWind from/ knotsBaromVisibWave heightAir tempDewpointWater temp
2015-Jul-29 11:11N 31°58' E 125°41'913.1
2015-Jul-29 10:29N 31°54' E 125°31'1312.7
2015-Jul-29 09:27N 31°47' E 125°18'1112.2
2015-Jul-29 08:34N 31°40' E 125°08'1312.2
2015-Jul-29 07:31N 31°34' E 124°55'1612.9
2015-Jul-29 06:16N 31°25' E 124°39'1013.3
2015-Jul-29 05:31N 31°20' E 124°29'5614.1
2015-Jul-29 01:32N 30°50' E 123°33'1414.7
2015-Jul-29 00:34N 30°42' E 123°19'1413.9
2015-Jul-28 23:33N 30°36' E 123°05'1313.0
2015-Jul-28 22:33N 30°35' E 122°50'1312.7
2015-Jul-28 21:33N 30°32' E 122°35'1313.2
2015-Jul-28 20:33N 30°32' E 122°20'1312.6
2015-Jul-28 19:33N 30°36' E 122°06'2 1.6
2015-Jul-28 18:33N 30°37' E 122°04'0 0.0
2015-Jul-28 17:30N 30°37' E 122°04'0 0.0
2015-Jul-28 16:33N 30°37' E 122°04'0 0.0
2015-Jul-28 15:30N 30°37' E 122°04'0 0.0
2015-Jul-28 14:27N 30°37' E 122°04'0 0.0
2015-Jul-28 13:06N 30°37' E 122°04'0 0.0
2015-Jul-28 12:21N 30°37' E 122°04'0 0.0
2015-Jul-28 10:33N 30°37' E 122°04'0 0.0
2015-Jul-28 09:09N 30°37' E 122°04'0 0.0
2015-Jul-28 08:18N 30°37' E 122°04'0 0.0
2015-Jul-28 04:31N 30°37' E 122°04'1 0.8
2015-Jul-28 03:33N 30°36' E 122°05'9 8.5
2015-Jul-28 02:34N 30°34' E 122°14'8 7.6
2015-Jul-28 01:32N 30°33' E 122°23'3 3.3
2015-Jul-28 00:33N 30°32' E 122°27'1 0.9
2015-Jul-27 23:33N 30°32' E 122°28'6 5.6
2015-Jul-27 22:34N 30°29' E 122°33'0 0.3
2015-Jul-27 21:24N 30°29' E 122°33'0 0.1
2015-Jul-27 20:33N 30°29' E 122°33'0 0.2
2015-Jul-27 19:18N 30°29' E 122°33'0 0.1
2015-Jul-27 18:27N 30°29' E 122°33'0 0.1
2015-Jul-27 17:30N 30°29' E 122°33'0 0.0
2015-Jul-27 14:21N 30°29' E 122°33'0 0.1
2015-Jul-27 11:33N 30°29' E 122°33'0 0.0
2015-Jul-27 10:21N 30°29' E 122°33'0 0.0
2015-Jul-27 09:30N 30°29' E 122°33'0 0.1
2015-Jul-27 04:31N 30°29' E 122°33'6 5.8
2015-Jul-27 03:30N 30°28' E 122°40'1010.5
2015-Jul-27 02:32N 30°25' E 122°51'1211.7
2015-Jul-27 01:32N 30°18' E 123°02'1312.0
2015-Jul-27 00:30N 30°05' E 123°03'1313.4
2015-Jul-26 23:32N 29°55' E 122°55'1414.2
2015-Jul-26 22:33N 29°46' E 122°42'1211.9
2015-Jul-26 21:33N 29°41' E 122°30'1211.8
2015-Jul-26 20:33N 29°46' E 122°18'8 8.5
2015-Jul-26 19:33N 29°49' E 122°09'8 7.8
2015-Jul-26 18:33N 29°46' E 122°00'0 0.0
2015-Jul-26 16:28N 29°46' E 122°00'0 0.0
2015-Jul-26 15:28N 29°46' E 122°00'0 0.0
2015-Jul-26 13:22N 29°46' E 122°00'0 0.0
2015-Jul-26 09:28N 29°46' E 122°00'0 0.0
2015-Jul-26 07:22N 29°46' E 122°00'0 0.0
2015-Jul-26 06:10N 29°46' E 122°00'0 0.2
2015-Jul-26 05:33N 29°46' E 122°00'1010.5
2015-Jul-26 04:33N 29°51' E 122°11'13 9.1
2015-Jul-26 03:08N 29°44' E 122°23'910.8
2015-Jul-26 02:18N 29°41' E 122°33'1013.2
2015-Jul-26 01:33N 29°42' E 122°45'1817.8
2015-Jul-26 00:32N 29°51' E 123°03'1817.8
2015-Jul-25 23:33N 30°04' E 123°17'2518.6
2015-Jul-25 22:12N 30°29' E 123°20'1419.1
2015-Jul-25 21:28N 30°43' E 123°20'2019.2
2015-Jul-25 20:26N 31°02' E 123°20'4119.1
2015-Jul-25 18:18N 31°43' E 123°20'290 9.1
2015-Jul-24 10:30N 35°59' E 120°35'  
2015-Jul-21 03:22N 34°60' E 129°12'  
Track history (hours):
 
Tides and Currents Weather Stations Pressure Air Temp Water Temp Dewpoint Dewpoint Depression Visibility Wind Speed Wind Dir Waves Ship Positions

Nyk Deneb

Last reported at 2015-Jul-29 11:11 UTC. Time now 2015-Jul-31 13:20 UTC.
Position N 31°58' E 125°41'.

Length 294 m; draft 11.8 m.

Type: Ship (hazmat cat B). MMSI: 355717000.

Date/timePositionNaut miles runAvg speedWind from/ knotsBaromVisibWave heightAir tempDewpointWater temp
2015-Jul-29 11:11N 31°58' E 125°41'913.1
2015-Jul-29 10:29N 31°54' E 125°31'1312.7
2015-Jul-29 09:27N 31°47' E 125°18'1112.2
2015-Jul-29 08:34N 31°40' E 125°08'1312.2
2015-Jul-29 07:31N 31°34' E 124°55'1612.9
2015-Jul-29 06:16N 31°25' E 124°39'1013.3
2015-Jul-29 05:31N 31°20' E 124°29'5614.1
2015-Jul-29 01:32N 30°50' E 123°33'1414.7
2015-Jul-29 00:34N 30°42' E 123°19'1413.9
2015-Jul-28 23:33N 30°36' E 123°05'1313.0
2015-Jul-28 22:33N 30°35' E 122°50'1312.7
2015-Jul-28 21:33N 30°32' E 122°35'1313.2
2015-Jul-28 20:33N 30°32' E 122°20'1312.6
2015-Jul-28 19:33N 30°36' E 122°06'2 1.6
2015-Jul-28 18:33N 30°37' E 122°04'0 0.0
2015-Jul-28 17:30N 30°37' E 122°04'0 0.0
2015-Jul-28 16:33N 30°37' E 122°04'0 0.0
2015-Jul-28 15:30N 30°37' E 122°04'0 0.0
2015-Jul-28 14:27N 30°37' E 122°04'0 0.0
2015-Jul-28 13:06N 30°37' E 122°04'0 0.0
2015-Jul-28 12:21N 30°37' E 122°04'0 0.0
2015-Jul-28 10:33N 30°37' E 122°04'0 0.0
2015-Jul-28 09:09N 30°37' E 122°04'0 0.0
2015-Jul-28 08:18N 30°37' E 122°04'0 0.0
2015-Jul-28 04:31N 30°37' E 122°04'1 0.8
2015-Jul-28 03:33N 30°36' E 122°05'9 8.5
2015-Jul-28 02:34N 30°34' E 122°14'8 7.6
2015-Jul-28 01:32N 30°33' E 122°23'3 3.3
2015-Jul-28 00:33N 30°32' E 122°27'1 0.9
2015-Jul-27 23:33N 30°32' E 122°28'6 5.6
2015-Jul-27 22:34N 30°29' E 122°33'0 0.3
2015-Jul-27 21:24N 30°29' E 122°33'0 0.1
2015-Jul-27 20:33N 30°29' E 122°33'0 0.2
2015-Jul-27 19:18N 30°29' E 122°33'0 0.1
2015-Jul-27 18:27N 30°29' E 122°33'0 0.1
2015-Jul-27 17:30N 30°29' E 122°33'0 0.0
2015-Jul-27 14:21N 30°29' E 122°33'0 0.1
2015-Jul-27 11:33N 30°29' E 122°33'0 0.0
2015-Jul-27 10:21N 30°29' E 122°33'0 0.0
2015-Jul-27 09:30N 30°29' E 122°33'0 0.1
2015-Jul-27 04:31N 30°29' E 122°33'6 5.8
2015-Jul-27 03:30N 30°28' E 122°40'1010.5
2015-Jul-27 02:32N 30°25' E 122°51'1211.7
2015-Jul-27 01:32N 30°18' E 123°02'1312.0
2015-Jul-27 00:30N 30°05' E 123°03'1313.4
2015-Jul-26 23:32N 29°55' E 122°55'1414.2
2015-Jul-26 22:33N 29°46' E 122°42'1211.9
2015-Jul-26 21:33N 29°41' E 122°30'1211.8
2015-Jul-26 20:33N 29°46' E 122°18'8 8.5
2015-Jul-26 19:33N 29°49' E 122°09'8 7.8
2015-Jul-26 18:33N 29°46' E 122°00'0 0.0
2015-Jul-26 16:28N 29°46' E 122°00'0 0.0
2015-Jul-26 15:28N 29°46' E 122°00'0 0.0
2015-Jul-26 13:22N 29°46' E 122°00'0 0.0
2015-Jul-26 09:28N 29°46' E 122°00'0 0.0
2015-Jul-26 07:22N 29°46' E 122°00'0 0.0
2015-Jul-26 06:10N 29°46' E 122°00'0 0.2
2015-Jul-26 05:33N 29°46' E 122°00'1010.5
2015-Jul-26 04:33N 29°51' E 122°11'13 9.1
2015-Jul-26 03:08N 29°44' E 122°23'910.8
2015-Jul-26 02:18N 29°41' E 122°33'1013.2
2015-Jul-26 01:33N 29°42' E 122°45'1817.8
2015-Jul-26 00:32N 29°51' E 123°03'1817.8
2015-Jul-25 23:33N 30°04' E 123°17'2518.6
2015-Jul-25 22:12N 30°29' E 123°20'1419.1
2015-Jul-25 21:28N 30°43' E 123°20'2019.2
2015-Jul-25 20:26N 31°02' E 123°20'4119.1
2015-Jul-25 18:18N 31°43' E 123°20'290 9.1
2015-Jul-24 10:30N 35°59' E 120°35'  
2015-Jul-21 03:22N 34°60' E 129°12'  

Dump ship's entire track history